• Join FlightAware (Why Join?)
  • Login
  • US Flag 
03:27AM EDT


 

Airport Tracker/Info


-or-


 

Live Flight TrackerFlight Track Log ✈ BBA4 ✈ 09-Jun-2013 ✈ KCPS - CYUL

Flight Track Log - Related Links

Times and Time Zones

All times are in EDT time to prevent confusion due to time zone crossing. See the BBA4 flight status page for this flight to view local times or setup timezone preferences in your user account.

Time Position Orientation Groundspeed Altitude Reporting Facility
EDT Latitude Longitude Course Direction KTS MPH feet Rate Location/Type
05:06PM 38.5667 -90.2000 130° Southeast 205 236 2,500  Level Gateway (St. Louis) TRACON
05:07PM 38.5333 -90.1500 130° Southeast 235 270 3,200 1,980 Climbing Gateway (St. Louis) TRACON
05:08PM 38.5333 -90.0667 90° East 292 336 6,100 3,480 Climbing Gateway (St. Louis) TRACON
05:09PM 38.5500 -89.9667 78° East 286 329 9,900 2,580 Climbing Gateway (St. Louis) TRACON
05:10PM 38.5539 -89.8464 88° East 300 345 11,500 1,800 Climbing Kansas City Center
05:11PM 38.5683 -89.7267 81° East 334 384 14,000 1,200 Climbing Kansas City Center
05:12PM 38.6642 -89.6314 38° Northeast 381 438 14,000 480 Level Kansas City Center
05:13PM 38.7661 -89.5581 29° Northeast 420 483 15,000 1,320 Climbing Kansas City Center
05:14PM 38.8031 -89.4217 71° East 408 470 16,800 1,200 Climbing Kansas City Center
05:15PM 38.8231 -89.2628 81° East 417 480 17,500 960 Climbing Kansas City Center
05:16PM 38.8458 -89.1181 79° East 417 480 18,900 1,200 Climbing Kansas City Center
05:17PM 38.9311 -88.9811 51° Northeast 460 529 20,000 540 Climbing Kansas City Center
05:18PM 39.0047 -88.8683 50° Northeast 474 545 20,000 840 Level Kansas City Center
05:19PM 39.0892 -88.7306 52° Northeast 485 558 21,800 1,800 Climbing Kansas City Center
05:20PM 39.1903 -88.5650 52° Northeast 496 571 23,900 1,560 Climbing Kansas City Center
05:21PM 39.2767 -88.4192 53° Northeast 504 580 25,100 1,200 Climbing Kansas City Center
05:22PM 39.3644 -88.2717 52° Northeast 510 587 26,400 1,560 Climbing Kansas City Center
05:23PM 39.4592 -88.1139 52° Northeast 528 608 28,500 1,980 Climbing Kansas City Center
05:24PM 39.5217 -88.0094 52° Northeast 535 616 29,800 1,380 Climbing Indianapolis Center
05:25PM 39.6131 -87.8564 52° Northeast 536 617 30,800 840 Climbing Indianapolis Center
05:26PM 39.7078 -87.6967 52° Northeast 548 631 31,600 1,560 Climbing Indianapolis Center
05:27PM 39.8253 -87.4964 53° Northeast 578 665 34,100 2,400 Climbing Indianapolis Center
05:28PM 39.9164 -87.3397 53° Northeast 553 636 36,600 1,860 Climbing Indianapolis Center
05:29PM 40.0075 -87.1856 52° Northeast 539 620 38,000 660 Climbing Indianapolis Center
05:30PM 40.1006 -87.0261 53° Northeast 546 628 38,000  Level Indianapolis Center
05:31PM 40.1917 -86.8667 53° Northeast 549 632 38,000 660 Level Chicago Center
05:32PM 40.2842 -86.7056 53° Northeast 551 634 39,400 960 Climbing Chicago Center
05:33PM 40.3750 -86.5483 53° Northeast 541 623 40,000 720 Climbing Chicago Center
05:34PM 40.4661 -86.3867 53° Northeast 548 631 41,000 480 Climbing Chicago Center
05:35PM 40.5572 -86.2269 53° Northeast 544 626 41,000  Level Chicago Center
05:36PM 40.6661 -86.0350 53° Northeast 545 627 41,000  Level Chicago Center
05:37PM 40.7500 -85.8806 54° Northeast 549 632 41,000  Level Chicago Center
05:38PM 40.8392 -85.7203 54° Northeast 547 629 41,000  Level Chicago Center
05:39PM 40.9286 -85.5586 54° Northeast 547 629 41,000  Level Chicago Center
05:40PM 41.0361 -85.3614 54° Northeast 555 639 41,000  Level Chicago Center
05:41PM 41.1256 -85.1942 55° Northeast 559 643 41,000  Level Chicago Center
05:42PM 41.2139 -85.0322 54° Northeast 553 636 41,000  Level Chicago Center
05:43PM 41.3036 -84.8675 54° Northeast 555 639 41,000  Level Chicago Center
05:45PM 41.3936 -84.7031 54° Northeast 556 640 41,000  Level Chicago Center
05:46PM 41.4986 -84.5042 55° Northeast 552 635 41,000 60 Level Chicago Center
05:47PM 41.5872 -84.3369 55° Northeast 554 638 41,200 780 Climbing Chicago Center
05:48PM 41.6764 -84.1694 54° Northeast 556 640 42,700 840 Climbing Chicago Center
05:49PM 41.7589 -84.0139 55° Northeast 522 601 43,000 120 Climbing Chicago Center
05:50PM 41.8403 -83.8569 55° Northeast 516 594 43,000  Level Chicago Center
05:51PM 41.9306 -83.6786 56° Northeast 517 595 43,000  Level Cleveland Center
05:52PM 42.0164 -83.5150 55° Northeast 522 601 43,000  Level Cleveland Center
05:53PM 42.0975 -83.3481 57° Northeast 528 608 43,000  Level Cleveland Center
05:54PM 42.1594 -83.1939 62° Northeast 528 608 43,000  Level Cleveland Center
05:55PM 42.2364 -83.0231 59° Northeast 528 608 43,000  Level Cleveland Center
05:56PM 42.3106 -82.8519 60° Northeast 523 602 43,000  Level Cleveland Center
05:57PM 42.3869 -82.6831 58° Northeast 523 602 43,000  Level Cleveland Center
05:58PM 42.4608 -82.5111 60° Northeast 523 602 43,000  Level Cleveland Center
05:59PM 42.5344 -82.3386 60° Northeast 523 602 43,000  Level Cleveland Center
06:00PM 42.6097 -82.1686 59° Northeast 523 602 43,000  Level Cleveland Center
06:01PM 42.6850 -81.9953 59° Northeast 523 602 43,000  Level Cleveland Center
06:02PM 42.7494 -81.8186 64° Northeast 523 602 43,000  Level Cleveland Center
06:03PM 42.8161 -81.6192 65° Northeast 518 596 43,000  Level Cleveland Center
06:04PM 42.8833 -81.3333 72° East 530 610 43,000  Level Toronto Center
06:05PM 42.9500 -81.1667 61° Northeast 540 621 43,000  Level Toronto Center
06:06PM 43.0000 -80.9833 69° East 540 621 43,000  Level Toronto Center
06:07PM 43.0667 -80.8000 63° Northeast 540 621 43,000  Level Toronto Center
06:08PM 43.1333 -80.6000 65° Northeast 540 621 43,000  Level Toronto Center
06:09PM 43.1833 -80.4167 69° East 540 621 43,000  Level Toronto Center
06:10PM 43.2500 -80.2000 67° East 540 621 43,000  Level Toronto Center
06:11PM 43.3000 -80.0167 69° East 540 621 43,000  Level Toronto Center
06:12PM 43.3667 -79.8333 63° Northeast 540 621 43,000  Level Toronto Center
06:13PM 43.4167 -79.6500 69° East 540 621 43,000  Level Toronto Center
06:14PM 43.4833 -79.4500 65° Northeast 540 621 43,000  Level Toronto Center
06:15PM 43.5333 -79.2667 69° East 540 621 43,000  Level Toronto Center
06:16PM 43.6000 -79.0833 63° Northeast 540 621 43,000  Level Toronto Center
06:17PM 43.6500 -78.8667 72° East 540 621 43,000  Level Toronto Center
06:18PM 43.7167 -78.6833 63° Northeast 540 621 43,000  Level Toronto Center
06:19PM 43.7667 -78.5000 69° East 540 621 43,000  Level Toronto Center
06:20PM 43.8167 -78.3000 71° East 540 621 43,000  Level Toronto Center
06:21PM 43.8667 -78.1000 71° East 540 621 43,000  Level Toronto Center
06:22PM 43.9167 -77.9167 69° East 550 633 43,000  Level Toronto Center
06:23PM 43.9833 -77.7167 65° Northeast 540 621 43,000  Level Toronto Center
06:24PM 44.0333 -77.5167 71° East 540 621 43,000  Level Toronto Center
06:25PM 44.1000 -77.3333 63° Northeast 540 621 43,000  Level Toronto Center
06:26PM 44.1833 -77.1500 58° Northeast 540 621 43,000  Level Toronto Center
06:27PM 44.2667 -76.9833 55° Northeast 540 621 43,000  Level Toronto Center
06:28PM 44.3500 -76.8167 55° Northeast 540 621 43,000 -180 Level Toronto Center
06:29PM 44.4167 -76.6167 65° Northeast 540 621 42,700 -1,500 Descending Toronto Center
06:30PM 44.5000 -76.4500 55° Northeast 540 621 40,100 -2,880 Descending Toronto Center
06:31PM 44.5833 -76.2667 57° Northeast 550 633 37,000 -3,060 Descending Toronto Center
06:31PM 44.6000 -76.2500 35° Northeast 540 621 36,300 -2,820 Descending Montreal Center
06:32PM 44.6667 -76.0667 63° Northeast 550 633 33,500 -2,940 Descending Montreal Center
06:33PM 44.7167 -75.8500 72° East 540 621 30,500 -2,880 Descending Montreal Center
06:34PM 44.7667 -75.6667 69° East 530 610 27,800 -2,760 Descending Montreal Center
06:35PM 44.8167 -75.4667 71° East 510 587 25,000 -2,700 Descending Montreal Center
06:36PM 44.8667 -75.3000 67° East 490 564 22,500 -2,520 Descending Montreal Center
06:37PM 44.9167 -75.1167 69° East 470 541 20,000 -2,400 Descending Montreal Center
06:38PM 44.9500 -74.9667 73° East 440 506 17,800 -2,280 Descending Montreal Center
06:39PM 45.0167 -74.8333 55° Northeast 400 460 15,500 -2,160 Descending Montreal Center
06:40PM 45.0667 -74.7167 59° Northeast 380 437 13,500 -1,920 Descending Montreal Center
06:41PM 45.1167 -74.6000 59° Northeast 350 403 11,700 -1,680 Descending Montreal Center
06:42PM 45.1667 -74.4667 62° Northeast 330 380 10,200 -1,560 Descending Montreal Center
06:43PM 45.2000 -74.3833 60° Northeast 280 322 8,600 -1,500 Descending Montreal Center
06:44PM 45.2000 -74.2500 90° East 280 322 7,300 -1,260 Descending Montreal Center
06:45PM 45.2167 -74.1667 74° East 270 311 6,100 -1,140 Descending Montreal Center
06:46PM 45.2167 -74.0667 90° East 250 288 5,100 -660 Descending Montreal Center
06:47PM 45.2500 -73.9667 65° Northeast 230 265 4,800 -600 Descending Montreal Center
06:48PM 45.3000 -73.9167 35° Northeast 210 242 4,000 -960 Descending Montreal Center
06:49PM 45.3333 -73.8667 47° Northeast 210 242 2,900 -1,140 Descending Montreal Center
06:50PM 45.3833 -73.8167 35° Northeast 180 207 1,800 -900 Descending Montreal Center
06:51PM 45.4167 -73.7667 46° Northeast 140 161 1,100 -720 Descending Montreal Center
06:52PM 45.4333 -73.7500 35° Northeast 130 150 400 -540 Descending Montreal Center
06:53PM 45.4667 -73.7167 35° Northeast 120 138 100 -300 Descending Montreal Center